createdAt,value
2022-08-17T00:01:32.050Z,24.48
2022-08-17T00:04:19.409Z,22.40
2022-08-17T00:06:49.447Z,20.75
2022-08-17T00:09:18.904Z,18.25
2022-08-17T00:12:41.308Z,20.20
2022-08-17T00:14:35.244Z,20.95
2022-08-17T00:17:03.911Z,22.52
2022-08-17T00:19:32.464Z,21.95
2022-08-17T00:22:31.974Z,19.58
2022-08-17T00:24:47.330Z,20.02
2022-08-17T00:27:13.831Z,18.55
2022-08-17T00:29:40.593Z,20.45
2022-08-17T00:33:13.692Z,22.02
2022-08-17T00:34:53.842Z,21.85
2022-08-17T00:37:20.547Z,22.52
2022-08-17T00:39:47.243Z,22.15
2022-08-17T00:42:15.726Z,23.88
2022-08-17T00:44:42.301Z,21.77
2022-08-17T00:47:08.955Z,23.77
2022-08-17T00:49:35.502Z,24.42
2022-08-17T00:52:10.673Z,22.67
2022-08-17T00:54:42.317Z,21.70
2022-08-17T00:57:15.110Z,21.27
2022-08-17T00:59:47.160Z,23.48
2022-08-17T01:02:29.647Z,20.40
2022-08-17T01:05:01.088Z,22.13
2022-08-17T01:07:27.747Z,22.52
2022-08-17T01:09:54.812Z,20.58
2022-08-17T01:12:21.722Z,20.30
2022-08-17T01:14:48.582Z,23.33
2022-08-17T01:17:15.273Z,22.90
2022-08-17T01:19:42.718Z,23.17
2022-08-17T01:22:09.192Z,23.17
2022-08-17T01:24:38.904Z,23.58
2022-08-17T01:27:10.665Z,23.40
2022-08-17T01:29:41.183Z,23.70
2022-08-17T01:32:08.371Z,21.73
2022-08-17T01:34:42.416Z,22.77
2022-08-17T01:37:10.623Z,23.33
2022-08-17T01:39:49.175Z,20.60
2022-08-17T01:42:31.734Z,23.60
2022-08-17T01:45:04.395Z,23.77
2022-08-17T01:47:31.140Z,20.48
2022-08-17T01:49:57.926Z,21.23
2022-08-17T01:52:24.602Z,21.73
2022-08-17T01:54:51.380Z,20.67
2022-08-17T01:57:18.463Z,19.40
2022-08-17T01:59:44.993Z,23.98
2022-08-17T02:02:11.589Z,20.77
2022-08-17T02:04:56.837Z,21.92
2022-08-17T02:07:26.131Z,23.52
2022-08-17T02:12:38.768Z,24.00
2022-08-17T02:15:07.641Z,24.17
2022-08-17T02:17:35.239Z,23.88
2022-08-17T02:20:01.845Z,24.08
2022-08-17T02:22:28.847Z,20.27
2022-08-17T02:25:01.114Z,21.13
2022-08-17T02:27:28.424Z,21.27
2022-08-17T02:29:54.927Z,21.70
2022-08-17T02:32:27.575Z,20.08
2022-08-17T02:34:56.514Z,23.00
2022-08-17T02:37:23.364Z,23.02
2022-08-17T02:39:50.002Z,23.35
2022-08-17T02:42:16.536Z,23.63
2022-08-17T02:44:43.554Z,24.40
2022-08-17T02:47:11.634Z,23.13
2022-08-17T02:49:38.338Z,22.63
2022-08-17T02:52:07.241Z,24.08
2022-08-17T02:54:40.354Z,24.58
2022-08-17T02:57:11.793Z,25.63
2022-08-17T02:59:39.806Z,21.92
2022-08-17T03:02:08.356Z,26.38
2022-08-17T03:04:35.645Z,27.23
2022-08-17T03:07:03.537Z,25.83
2022-08-17T03:09:30.049Z,21.40
2022-08-17T03:12:08.449Z,21.65
2022-08-17T03:14:41.316Z,23.08
2022-08-17T03:17:10.975Z,25.80
2022-08-17T03:19:43.483Z,25.90
2022-08-17T03:22:36.556Z,26.27
2022-08-17T03:24:57.706Z,25.77
2022-08-17T03:27:24.286Z,25.17
2022-08-17T03:29:50.939Z,26.50
2022-08-17T03:32:17.629Z,25.30
2022-08-17T03:34:44.220Z,20.15
2022-08-17T03:37:10.726Z,25.35
2022-08-17T03:39:37.565Z,22.35
2022-08-17T03:42:09.085Z,23.85
2022-08-17T03:44:57.888Z,23.45
2022-08-17T03:47:50.694Z,22.30
2022-08-17T03:50:37.401Z,21.52
2022-08-17T03:53:26.891Z,21.33
2022-08-17T03:56:11.953Z,20.80
2022-08-17T03:58:38.779Z,21.30
2022-08-17T04:01:06.861Z,22.70
2022-08-17T04:03:33.793Z,19.92
2022-08-17T04:06:02.183Z,23.35
2022-08-17T04:08:29.587Z,21.80
2022-08-17T04:10:57.426Z,22.77
2022-08-17T04:13:24.766Z,20.15
2022-08-17T04:15:52.733Z,19.33
2022-08-17T04:18:20.163Z,19.52
2022-08-17T04:20:47.163Z,21.63
2022-08-17T04:23:17.029Z,19.88
2022-08-17T04:25:48.285Z,18.70
2022-08-17T04:28:16.568Z,20.95
2022-08-17T04:30:45.139Z,21.42
2022-08-17T04:33:21.034Z,21.30
2022-08-17T04:35:50.357Z,19.92
2022-08-17T04:38:20.781Z,21.20
2022-08-17T04:41:07.379Z,17.70
2022-08-17T04:43:35.014Z,19.80
2022-08-17T04:46:04.803Z,18.85
2022-08-17T04:48:41.753Z,19.90
2022-08-17T04:51:16.222Z,19.15
2022-08-17T04:53:45.315Z,18.80
2022-08-17T04:56:20.577Z,18.10
2022-08-17T04:58:50.284Z,16.60
2022-08-17T05:01:23.381Z,17.27
2022-08-17T05:03:56.385Z,18.17
2022-08-17T05:06:23.402Z,18.90
2022-08-17T05:08:49.962Z,19.05
2022-08-17T05:11:16.842Z,16.92
2022-08-17T05:13:43.573Z,15.68
2022-08-17T05:16:10.453Z,17.40
2022-08-17T05:18:39.918Z,17.67
2022-08-17T05:21:07.335Z,16.57
2022-08-17T05:23:43.060Z,17.67
2022-08-17T05:26:26.190Z,17.42
2022-08-17T05:29:02.464Z,19.15
2022-08-17T05:31:30.716Z,16.35
2022-08-17T05:33:57.536Z,17.98
2022-08-17T05:36:41.902Z,17.70
2022-08-17T05:39:15.805Z,19.45
2022-08-17T05:41:43.353Z,16.08
2022-08-17T05:44:10.733Z,15.73
2022-08-17T05:46:41.778Z,17.90
2022-08-17T05:49:09.557Z,18.10
2022-08-17T05:52:03.412Z,18.70
2022-08-17T05:54:53.880Z,18.30
2022-08-17T05:57:47.575Z,18.52
2022-08-17T06:00:30.267Z,15.85
2022-08-17T06:03:07.422Z,19.52
2022-08-17T06:05:59.798Z,20.17
2022-08-17T06:08:41.184Z,20.85
2022-08-17T06:11:13.641Z,15.88
2022-08-17T06:13:49.389Z,20.77
2022-08-17T06:16:33.466Z,18.85
2022-08-17T06:19:12.057Z,18.98
2022-08-17T06:21:43.098Z,20.58
2022-08-17T06:24:24.870Z,17.80
2022-08-17T06:26:53.095Z,19.48
2022-08-17T06:29:47.471Z,19.10
2022-08-17T06:32:14.633Z,19.92
2022-08-17T06:34:43.888Z,19.02
2022-08-17T06:37:28.725Z,17.95
2022-08-17T06:40:15.911Z,22.20
2022-08-17T06:43:14.739Z,21.23
2022-08-17T06:45:54.898Z,18.27
2022-08-17T06:48:33.111Z,16.92
2022-08-17T06:51:15.134Z,21.27
2022-08-17T06:53:49.992Z,20.70
2022-08-17T06:56:54.543Z,21.40
2022-08-17T06:59:30.458Z,20.92
2022-08-17T07:02:52.756Z,20.73
2022-08-17T07:05:32.660Z,18.17
2022-08-17T07:08:18.580Z,17.83
2022-08-17T07:10:50.831Z,19.92
2022-08-17T07:13:51.146Z,18.83
2022-08-17T07:16:35.145Z,19.05
2022-08-17T07:19:01.878Z,22.42
2022-08-17T07:21:31.685Z,19.77
2022-08-17T07:24:33.282Z,19.98
2022-08-17T07:27:20.683Z,20.02
2022-08-17T07:29:54.880Z,22.02
2022-08-17T07:32:26.457Z,22.42
2022-08-17T07:35:15.165Z,23.63
2022-08-17T07:37:46.043Z,20.67
2022-08-17T07:40:18.825Z,22.20
2022-08-17T07:43:02.281Z,20.42
2022-08-17T07:46:04.511Z,22.95
2022-08-17T07:48:36.066Z,22.83
2022-08-17T07:51:19.842Z,21.90
2022-08-17T07:53:46.729Z,23.30
2022-08-17T07:56:38.207Z,19.30
2022-08-17T07:59:23.757Z,20.27
2022-08-17T08:01:57.572Z,23.15
2022-08-17T08:04:59.014Z,20.48
2022-08-17T08:07:57.185Z,22.48
2022-08-17T08:10:45.402Z,22.98
2022-08-17T08:13:24.394Z,24.50
2022-08-17T08:15:54.770Z,22.70
2022-08-17T08:18:54.532Z,19.48
2022-08-17T08:21:38.974Z,22.13
2022-08-17T08:24:20.236Z,23.65
2022-08-17T08:27:18.112Z,23.83
2022-08-17T08:29:57.782Z,21.83
2022-08-17T08:32:48.628Z,21.70
2022-08-17T08:35:34.377Z,22.65
2022-08-17T08:38:07.626Z,22.52
2022-08-17T08:41:07.857Z,22.38
2022-08-17T08:44:06.461Z,23.38
2022-08-17T08:47:01.018Z,23.52
2022-08-17T08:50:04.791Z,21.17
2022-08-17T08:53:03.679Z,20.08
2022-08-17T08:55:51.907Z,21.15
2022-08-17T08:58:31.428Z,18.60
2022-08-17T09:01:27.658Z,19.20
2022-08-17T09:05:09.974Z,22.20
2022-08-17T09:07:38.981Z,20.83
2022-08-17T09:10:21.278Z,21.23
2022-08-17T09:12:51.313Z,22.38
2022-08-17T09:15:26.855Z,21.45
2022-08-17T09:19:00.613Z,22.45
2022-08-17T09:20:58.401Z,22.20
2022-08-17T09:23:42.107Z,21.88
2022-08-17T09:26:22.077Z,20.58
2022-08-17T09:29:00.217Z,21.33
2022-08-17T09:31:47.012Z,19.60
2022-08-17T09:34:20.225Z,19.90
2022-08-17T09:37:07.874Z,20.70
2022-08-17T09:39:43.506Z,19.30
2022-08-17T09:42:29.926Z,19.52
2022-08-17T09:45:28.962Z,19.67
2022-08-17T09:48:06.097Z,20.10
2022-08-17T09:51:03.527Z,20.80
2022-08-17T09:53:32.255Z,18.45
2022-08-17T09:56:31.242Z,17.73
2022-08-17T09:59:08.795Z,15.95
2022-08-17T10:01:39.882Z,16.17
2022-08-17T10:04:44.395Z,16.48
2022-08-17T10:07:17.804Z,16.63
2022-08-17T10:09:56.164Z,16.15
2022-08-17T10:12:31.040Z,16.25
2022-08-17T10:14:58.697Z,14.95
2022-08-17T10:18:31.833Z,14.43
2022-08-17T10:21:28.312Z,15.00
2022-08-17T10:25:21.174Z,15.63
2022-08-17T10:27:45.063Z,14.32
2022-08-17T10:30:17.206Z,15.35
2022-08-17T10:32:55.202Z,16.02
2022-08-17T10:35:34.349Z,14.40
2022-08-17T10:38:26.165Z,15.15
2022-08-17T10:41:20.559Z,14.70
2022-08-17T10:44:36.955Z,17.75
2022-08-17T10:47:15.058Z,15.25
2022-08-17T10:49:50.441Z,16.95
2022-08-17T10:52:20.030Z,17.85
2022-08-17T10:54:50.478Z,15.32
2022-08-17T10:57:31.798Z,19.00
2022-08-17T11:00:06.967Z,18.17
2022-08-17T11:02:50.162Z,18.50
2022-08-17T11:05:29.464Z,18.15
2022-08-17T11:08:17.383Z,19.25
2022-08-17T11:10:58.829Z,17.23
2022-08-17T11:13:44.944Z,17.50
2022-08-17T11:16:20.092Z,20.10
2022-08-17T11:19:12.432Z,20.25
2022-08-17T11:21:45.126Z,18.92
2022-08-17T11:24:16.745Z,19.33
2022-08-17T11:27:17.506Z,17.90
2022-08-17T11:30:02.114Z,17.80
2022-08-17T11:32:47.794Z,19.70
2022-08-17T11:35:30.340Z,18.02
2022-08-17T11:38:15.885Z,18.70
2022-08-17T11:41:18.443Z,18.65
2022-08-17T11:44:02.186Z,18.90
2022-08-17T11:47:18.597Z,19.55
2022-08-17T11:50:39.883Z,19.77
2022-08-17T11:53:07.055Z,20.55
2022-08-17T11:55:39.540Z,20.00
2022-08-17T11:58:37.555Z,20.65
2022-08-17T12:01:12.364Z,20.88
2022-08-17T12:03:55.346Z,18.90
2022-08-17T12:06:45.267Z,19.83
2022-08-17T12:09:25.544Z,19.75
2022-08-17T12:12:13.897Z,20.88
2022-08-17T12:17:55.960Z,22.95
2022-08-17T12:20:41.636Z,23.65
2022-08-17T12:23:18.843Z,22.48
2022-08-17T12:26:13.597Z,21.42
2022-08-17T12:28:45.926Z,21.48
2022-08-17T12:31:21.964Z,19.75
2022-08-17T12:33:51.701Z,22.08
2022-08-17T12:36:22.846Z,19.27
2022-08-17T12:38:59.525Z,19.85
2022-08-17T12:41:47.192Z,22.60
2022-08-17T12:44:18.280Z,20.98
2022-08-17T12:46:46.989Z,20.83
2022-08-17T12:49:16.957Z,23.30
2022-08-17T12:51:46.194Z,24.83
2022-08-17T12:54:32.089Z,23.75
2022-08-17T12:57:05.587Z,22.23
2022-08-17T12:59:33.260Z,21.38
2022-08-17T13:02:00.814Z,25.33
2022-08-17T13:04:29.525Z,22.80
2022-08-17T13:07:08.022Z,24.48
2022-08-17T13:09:36.108Z,28.15
2022-08-17T13:12:11.018Z,24.23
2022-08-17T13:14:38.362Z,28.95
2022-08-17T13:17:09.849Z,25.25
2022-08-17T13:19:48.421Z,27.23
2022-08-17T13:22:14.963Z,25.98
2022-08-17T13:24:53.201Z,28.52
2022-08-17T13:27:22.345Z,29.90
2022-08-17T13:29:53.864Z,24.40
2022-08-17T13:32:31.086Z,30.05
2022-08-17T13:35:15.249Z,26.23
2022-08-17T13:38:01.264Z,27.27
2022-08-17T13:40:42.080Z,28.90
2022-08-17T13:43:11.246Z,29.13
2022-08-17T13:45:50.781Z,28.55
2022-08-17T13:48:29.553Z,25.33
2022-08-17T13:50:59.647Z,29.73
2022-08-17T13:53:36.035Z,29.77
2022-08-17T13:56:37.353Z,29.45
2022-08-17T13:59:04.824Z,29.83
2022-08-17T14:01:35.995Z,31.20
2022-08-17T14:04:15.410Z,27.67
2022-08-17T14:06:59.288Z,27.02
2022-08-17T14:09:38.615Z,25.48
2022-08-17T14:12:10.653Z,30.52
2022-08-17T14:14:37.855Z,30.45
2022-08-17T14:17:05.113Z,29.15
2022-08-17T14:19:34.470Z,26.27
2022-08-17T14:22:01.229Z,26.15
2022-08-17T14:24:34.298Z,26.48
2022-08-17T14:27:03.398Z,30.13
2022-08-17T14:29:32.485Z,26.10
2022-08-17T14:32:04.500Z,30.80
2022-08-17T14:34:31.214Z,27.63
2022-08-17T14:36:57.817Z,30.05
2022-08-17T14:39:24.449Z,27.92
2022-08-17T14:41:50.986Z,28.13
2022-08-17T14:44:17.708Z,25.90
2022-08-17T14:46:44.980Z,27.77
2022-08-17T14:49:13.027Z,31.70
2022-08-17T14:51:43.974Z,30.50
2022-08-17T14:54:11.844Z,28.80
2022-08-17T14:57:22.749Z,28.20
2022-08-17T14:59:46.010Z,29.00
2022-08-17T15:02:13.269Z,31.50
2022-08-17T15:04:45.359Z,28.55
2022-08-17T15:07:12.761Z,30.08
2022-08-17T15:09:39.442Z,26.58
2022-08-17T15:12:09.046Z,27.52
2022-08-17T15:14:36.343Z,30.63
2022-08-17T15:17:03.806Z,26.65
2022-08-17T15:19:30.360Z,28.25
2022-08-17T15:21:57.532Z,27.50
2022-08-17T15:24:24.087Z,26.40
2022-08-17T15:26:51.457Z,26.90
2022-08-17T15:29:18.029Z,27.33
2022-08-17T15:31:44.645Z,28.13
2022-08-17T15:34:11.236Z,30.83
2022-08-17T15:36:38.050Z,24.88
2022-08-17T15:39:08.067Z,25.50
2022-08-17T15:41:34.621Z,25.27
2022-08-17T15:44:01.254Z,27.98
2022-08-17T15:46:28.325Z,29.48
2022-08-17T15:48:58.918Z,25.83
2022-08-17T15:51:30.506Z,24.40
2022-08-17T15:54:04.427Z,28.45
2022-08-17T15:56:44.250Z,27.08
2022-08-17T15:59:10.848Z,28.95
2022-08-17T16:03:01.430Z,25.27
2022-08-17T16:04:30.507Z,28.58
2022-08-17T16:06:57.931Z,25.50
2022-08-17T16:09:24.633Z,25.65
2022-08-17T16:11:52.801Z,24.48
2022-08-17T16:14:22.520Z,28.08
2022-08-17T16:16:50.638Z,27.50
2022-08-17T16:19:17.268Z,22.73
2022-08-17T16:21:44.137Z,25.15
2022-08-17T16:24:13.080Z,23.35
2022-08-17T16:26:40.110Z,28.98
2022-08-17T16:29:07.669Z,27.95
2022-08-17T16:31:36.027Z,25.90
2022-08-17T16:34:17.267Z,26.83
2022-08-17T16:36:53.560Z,22.52
2022-08-17T16:39:22.856Z,25.77
2022-08-17T16:41:50.309Z,29.63
2022-08-17T16:44:21.395Z,24.48
2022-08-17T16:46:48.973Z,25.85
2022-08-17T16:49:35.315Z,25.02
2022-08-17T16:52:06.830Z,22.70
2022-08-17T16:54:35.256Z,24.83
2022-08-17T16:57:03.986Z,25.05
2022-08-17T16:59:40.868Z,24.40
2022-08-17T17:02:11.209Z,27.02
2022-08-17T17:04:45.938Z,23.77
2022-08-17T17:07:15.311Z,23.25
2022-08-17T17:09:43.890Z,23.80
2022-08-17T17:12:18.301Z,23.40
2022-08-17T17:14:47.676Z,22.15
2022-08-17T17:17:30.323Z,22.17
2022-08-17T17:20:15.101Z,23.60
2022-08-17T17:23:05.446Z,23.55
2022-08-17T17:28:56.214Z,21.83
2022-08-17T17:31:31.475Z,22.95
2022-08-17T17:34:04.451Z,23.98
2022-08-17T17:36:40.667Z,27.67
2022-08-17T17:39:14.140Z,22.35
2022-08-17T17:41:43.572Z,24.63
2022-08-17T17:44:18.000Z,22.20
2022-08-17T17:46:53.193Z,22.23
2022-08-17T17:49:20.303Z,21.38
2022-08-17T17:52:11.150Z,21.25
2022-08-17T17:54:47.927Z,25.42
2022-08-17T17:57:29.623Z,22.88
2022-08-17T18:00:14.775Z,22.58
2022-08-17T18:02:47.379Z,26.20
2022-08-17T18:05:37.250Z,21.58
2022-08-17T18:08:34.402Z,21.60
2022-08-17T18:11:24.048Z,23.00
2022-08-17T18:13:59.884Z,22.83
2022-08-17T18:16:32.059Z,22.23
2022-08-17T18:18:59.181Z,21.83
2022-08-17T18:21:40.158Z,24.75
2022-08-17T18:24:08.632Z,22.10
2022-08-17T18:26:50.149Z,21.80
2022-08-17T18:29:30.414Z,20.83
2022-08-17T18:32:18.529Z,20.02
2022-08-17T18:34:48.686Z,21.33
2022-08-17T18:37:33.121Z,18.85
2022-08-17T18:40:17.155Z,21.55
2022-08-17T18:43:05.498Z,20.63
2022-08-17T18:45:39.481Z,24.33
2022-08-17T18:48:19.310Z,20.27
2022-08-17T18:50:46.043Z,22.55
2022-08-17T18:53:34.040Z,20.73
2022-08-17T18:56:31.726Z,20.85
2022-08-17T18:59:41.567Z,23.33
2022-08-17T19:02:32.440Z,20.08
2022-08-17T19:05:10.952Z,23.45
2022-08-17T19:07:50.115Z,23.50
2022-08-17T19:10:28.892Z,23.00
2022-08-17T19:13:12.637Z,20.15
2022-08-17T19:16:12.300Z,20.45
2022-08-17T19:18:44.006Z,23.77
2022-08-17T19:21:20.679Z,20.67
2022-08-17T19:23:53.750Z,23.92
2022-08-17T19:26:54.709Z,22.10
2022-08-17T19:32:22.122Z,27.55
2022-08-17T19:34:49.318Z,25.23
2022-08-17T19:37:50.567Z,25.50
2022-08-17T19:40:53.759Z,20.70
2022-08-17T19:43:51.422Z,27.38
2022-08-17T19:46:48.663Z,23.65
2022-08-17T19:49:40.819Z,21.58
2022-08-17T19:52:29.132Z,21.80
2022-08-17T19:55:37.644Z,24.45
2022-08-17T19:58:21.680Z,21.50
2022-08-17T20:00:52.135Z,21.73
2022-08-17T20:03:31.436Z,23.45
2022-08-17T20:06:12.654Z,20.25
2022-08-17T20:08:53.994Z,21.20
2022-08-17T20:11:28.425Z,24.15
2022-08-17T20:14:12.032Z,22.88
2022-08-17T20:16:38.903Z,21.58
2022-08-17T20:19:27.664Z,22.58
2022-08-17T20:22:18.412Z,27.52
2022-08-17T20:24:54.221Z,23.77
2022-08-17T20:27:31.305Z,22.63
2022-08-17T20:30:01.604Z,22.10
2022-08-17T20:32:31.460Z,27.42
2022-08-17T20:35:25.920Z,27.85
2022-08-17T20:37:59.233Z,25.42
2022-08-17T20:40:32.797Z,23.25
2022-08-17T20:43:34.363Z,21.55
2022-08-17T20:46:18.801Z,24.23
2022-08-17T20:48:50.040Z,21.02
2022-08-17T20:51:22.612Z,25.90
2022-08-17T20:53:55.141Z,27.05
2022-08-17T20:56:43.548Z,26.20
2022-08-17T20:59:31.654Z,28.00
2022-08-17T21:02:18.590Z,27.13
2022-08-17T21:04:52.709Z,26.83
2022-08-17T21:07:53.100Z,25.92
2022-08-17T21:10:25.935Z,22.27
2022-08-17T21:13:21.788Z,22.88
2022-08-17T21:16:41.356Z,24.38
2022-08-17T21:19:25.947Z,26.88
2022-08-17T21:22:28.620Z,23.35
2022-08-17T21:25:16.185Z,26.00
2022-08-17T21:28:10.149Z,22.95
2022-08-17T21:30:39.125Z,20.70
2022-08-17T21:33:16.675Z,23.95
2022-08-17T21:35:49.309Z,25.35
2022-08-17T21:38:19.519Z,21.13
2022-08-17T21:40:50.061Z,22.67
2022-08-17T21:43:22.941Z,22.55
2022-08-17T21:46:02.204Z,22.88
2022-08-17T21:48:32.212Z,20.98
2022-08-17T21:51:06.657Z,19.20
2022-08-17T21:54:06.171Z,20.60
2022-08-17T21:56:38.705Z,21.73
2022-08-17T21:59:16.114Z,21.88
2022-08-17T22:01:43.247Z,20.98
2022-08-17T22:04:11.293Z,19.50
2022-08-17T22:06:55.841Z,17.60
2022-08-17T22:09:34.568Z,19.17
2022-08-17T22:12:04.750Z,16.73
2022-08-17T22:14:52.466Z,20.40
2022-08-17T22:17:27.119Z,18.08
2022-08-17T22:19:58.390Z,20.05
2022-08-17T22:22:27.704Z,19.83
2022-08-17T22:25:02.411Z,18.92
2022-08-17T22:27:59.402Z,18.92
2022-08-17T22:30:34.470Z,17.70
2022-08-17T22:33:33.015Z,15.50
2022-08-17T22:36:13.161Z,18.15
2022-08-17T22:38:41.488Z,16.75
2022-08-17T22:41:41.112Z,16.98
2022-08-17T22:44:31.884Z,16.02
2022-08-17T22:47:01.355Z,17.42
2022-08-17T22:49:53.359Z,18.43
2022-08-17T22:52:57.377Z,16.08
2022-08-17T22:55:43.624Z,18.15
2022-08-17T22:58:40.775Z,14.88
2022-08-17T23:01:32.588Z,18.58
2022-08-17T23:04:03.058Z,17.05
2022-08-17T23:06:33.884Z,14.77
2022-08-17T23:09:03.579Z,16.20
2022-08-17T23:11:49.290Z,17.60
2022-08-17T23:14:19.244Z,14.20
2022-08-17T23:16:46.940Z,16.67
2022-08-17T23:19:16.049Z,16.35
2022-08-17T23:21:44.869Z,16.13
2022-08-17T23:24:17.093Z,15.32
2022-08-17T23:26:43.633Z,14.73
2022-08-17T23:29:10.192Z,14.38
2022-08-17T23:31:38.821Z,14.82
2022-08-17T23:34:15.093Z,14.20
2022-08-17T23:36:42.220Z,13.48
2022-08-17T23:39:08.743Z,15.07
2022-08-17T23:41:39.810Z,13.50
2022-08-17T23:44:07.176Z,14.55
2022-08-17T23:46:34.528Z,14.32
2022-08-17T23:49:01.239Z,12.77
2022-08-17T23:51:31.834Z,13.85
2022-08-17T23:54:08.207Z,12.90
2022-08-17T23:56:43.824Z,13.05
2022-08-17T23:59:11.283Z,13.02
